sensor_id;sensor_type;location;lat;lon;timestamp;pressure;altitude;pressure_sealevel;temperature;humidity
71194;BME280;58903;47.210;8.618;2023-12-22T00:01:49;93363.88;;;25.76;36.92
71194;BME280;58903;47.210;8.618;2023-12-22T00:04:15;93368.84;;;25.78;36.56
71194;BME280;58903;47.210;8.618;2023-12-22T00:06:50;93360.38;;;25.76;37.00
71194;BME280;58903;47.210;8.618;2023-12-22T00:09:26;93364.09;;;25.78;36.54
71194;BME280;58903;47.210;8.618;2023-12-22T00:11:54;93355.63;;;25.76;37.02
71194;BME280;58903;47.210;8.618;2023-12-22T00:14:32;93343.88;;;25.76;36.80
71194;BME280;58903;47.210;8.618;2023-12-22T00:17:15;93364.09;;;25.78;36.86
71194;BME280;58903;47.210;8.618;2023-12-22T00:19:54;93340.59;;;25.77;36.96
71194;BME280;58903;47.210;8.618;2023-12-22T00:22:35;93346.81;;;25.78;36.56
71194;BME280;58903;47.210;8.618;2023-12-22T00:25:09;93347.28;;;25.69;37.13
71194;BME280;58903;47.210;8.618;2023-12-22T00:27:48;93355.97;;;25.73;36.54
71194;BME280;58903;47.210;8.618;2023-12-22T00:30:16;93345.88;;;25.75;36.46
71194;BME280;58903;47.210;8.618;2023-12-22T00:32:47;93358.94;;;25.75;36.78
71194;BME280;58903;47.210;8.618;2023-12-22T00:35:20;93364.44;;;25.75;36.54
71194;BME280;58903;47.210;8.618;2023-12-22T00:37:46;93366.09;;;25.78;36.13
71194;BME280;58903;47.210;8.618;2023-12-22T00:40:16;93374.69;;;25.74;36.61
71194;BME280;58903;47.210;8.618;2023-12-22T00:42:43;93365.69;;;25.74;36.71
71194;BME280;58903;47.210;8.618;2023-12-22T00:45:17;93366.63;;;25.76;36.38
71194;BME280;58903;47.210;8.618;2023-12-22T00:47:44;93372.56;;;25.80;36.46
71194;BME280;58903;47.210;8.618;2023-12-22T00:50:24;93362.63;;;25.77;36.69
71194;BME280;58903;47.210;8.618;2023-12-22T00:52:57;93362.28;;;25.81;36.74
71194;BME280;58903;47.210;8.618;2023-12-22T00:55:24;93367.38;;;25.77;36.29
71194;BME280;58903;47.210;8.618;2023-12-22T00:57:58;93381.56;;;25.81;36.60
71194;BME280;58903;47.210;8.618;2023-12-22T01:00:35;93396.41;;;25.78;36.43
71194;BME280;58903;47.210;8.618;2023-12-22T01:03:17;93395.13;;;25.79;36.59
71194;BME280;58903;47.210;8.618;2023-12-22T01:05:43;93404.66;;;25.78;36.91
71194;BME280;58903;47.210;8.618;2023-12-22T01:08:17;93411.66;;;25.79;37.00
71194;BME280;58903;47.210;8.618;2023-12-22T01:10:51;93422.69;;;25.79;36.22
71194;BME280;58903;47.210;8.618;2023-12-22T01:13:18;93422.69;;;25.79;37.00
71194;BME280;58903;47.210;8.618;2023-12-22T01:15:55;93440.47;;;25.78;37.08
71194;BME280;58903;47.210;8.618;2023-12-22T01:18:21;93428.94;;;25.79;36.15
71194;BME280;58903;47.210;8.618;2023-12-22T01:20:47;93433.69;;;25.79;36.52
71194;BME280;58903;47.210;8.618;2023-12-22T01:23:15;93441.22;;;25.78;36.75
71194;BME280;58903;47.210;8.618;2023-12-22T01:25:49;93424.69;;;25.78;36.45
71194;BME280;58903;47.210;8.618;2023-12-22T01:28:25;93417.72;;;25.77;37.02
71194;BME280;58903;47.210;8.618;2023-12-22T01:30:53;93430.00;;;25.76;36.02
71194;BME280;58903;47.210;8.618;2023-12-22T01:33:25;93432.94;;;25.78;36.08
71194;BME280;58903;47.210;8.618;2023-12-22T01:35:51;93405.19;;;25.76;36.83
71194;BME280;58903;47.210;8.618;2023-12-22T01:38:20;93424.16;;;25.80;36.17
71194;BME280;58903;47.210;8.618;2023-12-22T01:40:48;93427.66;;;25.80;36.42
71194;BME280;58903;47.210;8.618;2023-12-22T01:43:16;93428.94;;;25.79;36.61
71194;BME280;58903;47.210;8.618;2023-12-22T01:46:20;93436.44;;;25.79;36.12
71194;BME280;58903;47.210;8.618;2023-12-22T01:49:21;93430.19;;;25.78;36.46
71194;BME280;58903;47.210;8.618;2023-12-22T01:51:59;93419.72;;;25.77;36.72
71194;BME280;58903;47.210;8.618;2023-12-22T01:54:25;93412.72;;;25.76;36.59
71194;BME280;58903;47.210;8.618;2023-12-22T01:56:58;93401.91;;;25.78;36.29
71194;BME280;58903;47.210;8.618;2023-12-22T01:59:26;93401.84;;;25.70;36.82
71194;BME280;58903;47.210;8.618;2023-12-22T02:02:02;93424.28;;;25.74;36.64
71194;BME280;58903;47.210;8.618;2023-12-22T02:04:31;93430.00;;;25.76;36.38
71194;BME280;58903;47.210;8.618;2023-12-22T02:07:01;93418.56;;;25.72;36.88
71194;BME280;58903;47.210;8.618;2023-12-22T02:09:27;93428.50;;;25.75;36.40
71194;BME280;58903;47.210;8.618;2023-12-22T02:11:56;93426.22;;;25.66;36.68
71194;BME280;58903;47.210;8.618;2023-12-22T02:14:24;93426.22;;;25.66;37.25
71194;BME280;58903;47.210;8.618;2023-12-22T02:19:43;93417.06;;;25.71;36.68
71194;BME280;58903;47.210;8.618;2023-12-22T02:22:12;93418.16;;;25.68;36.89
71194;BME280;58903;47.210;8.618;2023-12-22T02:24:41;93431.19;;;25.68;36.28
71194;BME280;58903;47.210;8.618;2023-12-22T02:33:15;93412.09;;;25.70;36.09
71194;BME280;58903;47.210;8.618;2023-12-22T02:35:49;93409.34;;;25.70;36.61
71194;BME280;58903;47.210;8.618;2023-12-22T02:38:20;93402.91;;;25.67;36.38
71194;BME280;58903;47.210;8.618;2023-12-22T02:40:49;93401.09;;;25.70;37.05
71194;BME280;58903;47.210;8.618;2023-12-22T02:43:15;93390.63;;;25.68;36.30
71194;BME280;58903;47.210;8.618;2023-12-22T02:45:42;93393.38;;;25.68;36.40
71194;BME280;58903;47.210;8.618;2023-12-22T02:48:10;93401.44;;;25.66;36.27
71194;BME280;58903;47.210;8.618;2023-12-22T02:50:42;93401.00;;;25.62;36.43
71194;BME280;58903;47.210;8.618;2023-12-22T02:53:09;93406.50;;;25.62;36.49
71194;BME280;58903;47.210;8.618;2023-12-22T02:55:36;93406.50;;;25.62;36.94
71194;BME280;58903;47.210;8.618;2023-12-22T02:58:02;93403.56;;;25.60;37.11
71194;BME280;58903;47.210;8.618;2023-12-22T03:00:38;93398.59;;;25.59;37.04
71194;BME280;58903;47.210;8.618;2023-12-22T03:03:16;93397.31;;;25.60;36.50
71194;BME280;58903;47.210;8.618;2023-12-22T03:05:49;93403.56;;;25.60;36.68
71194;BME280;58903;47.210;8.618;2023-12-22T03:08:15;93408.66;;;25.56;37.19
71194;BME280;58903;47.210;8.618;2023-12-22T03:10:42;93417.88;;;25.59;36.95
71194;BME280;58903;47.210;8.618;2023-12-22T03:13:08;93417.44;;;25.55;36.95
71194;BME280;58903;47.210;8.618;2023-12-22T03:15:37;93437.69;;;25.57;36.91
71194;BME280;58903;47.210;8.618;2023-12-22T03:18:04;93458.00;;;25.54;36.73
71194;BME280;58903;47.210;8.618;2023-12-22T03:20:41;93445.84;;;25.50;36.53
71194;BME280;58903;47.210;8.618;2023-12-22T03:23:14;93447.31;;;25.51;36.72
71194;BME280;58903;47.210;8.618;2023-12-22T03:25:42;93452.84;;;25.51;37.46
71194;BME280;58903;47.210;8.618;2023-12-22T03:28:12;93435.16;;;25.46;37.10
71194;BME280;58903;47.210;8.618;2023-12-22T03:30:43;93460.56;;;25.52;36.93
71194;BME280;58903;47.210;8.618;2023-12-22T03:33:19;93454.31;;;25.52;36.79
71194;BME280;58903;47.210;8.618;2023-12-22T03:35:49;93456.09;;;25.49;36.93
71194;BME280;58903;47.210;8.618;2023-12-22T03:38:17;93459.59;;;25.50;37.31
71194;BME280;58903;47.210;8.618;2023-12-22T03:40:46;93465.09;;;25.50;36.60
71194;BME280;58903;47.210;8.618;2023-12-22T03:43:14;93457.38;;;25.48;36.67
71194;BME280;58903;47.210;8.618;2023-12-22T03:45:47;93452.41;;;25.47;37.02
71194;BME280;58903;47.210;8.618;2023-12-22T03:48:13;93455.38;;;25.49;37.34
71194;BME280;58903;47.210;8.618;2023-12-22T03:50:40;93440.13;;;25.48;36.57
71194;BME280;58903;47.210;8.618;2023-12-22T03:53:06;93441.63;;;25.49;36.70
71194;BME280;58903;47.210;8.618;2023-12-22T03:55:32;93456.66;;;25.48;36.68
71194;BME280;58903;47.210;8.618;2023-12-22T03:58:02;93449.66;;;25.47;36.68
71194;BME280;58903;47.210;8.618;2023-12-22T04:00:36;93458.66;;;25.47;37.17
71194;BME280;58903;47.210;8.618;2023-12-22T04:03:07;93470.94;;;25.46;37.44
71194;BME280;58903;47.210;8.618;2023-12-22T04:05:35;93475.72;;;25.46;36.88
71194;BME280;58903;47.210;8.618;2023-12-22T04:08:04;93483.44;;;25.47;37.23
71194;BME280;58903;47.210;8.618;2023-12-22T04:10:33;93478.66;;;25.48;36.93
71194;BME280;58903;47.210;8.618;2023-12-22T04:12:58;93484.50;;;25.44;37.30
71194;BME280;58903;47.210;8.618;2023-12-22T04:15:29;93477.00;;;25.45;36.90
71194;BME280;58903;47.210;8.618;2023-12-22T04:17:55;93471.00;;;25.40;37.31
71194;BME280;58903;47.210;8.618;2023-12-22T04:20:23;93483.75;;;25.43;37.33
71194;BME280;58903;47.210;8.618;2023-12-22T04:22:51;93479.00;;;25.44;36.75
71194;BME280;58903;47.210;8.618;2023-12-22T04:25:26;93491.03;;;25.41;36.84
71194;BME280;58903;47.210;8.618;2023-12-22T04:27:53;93489.81;;;25.42;37.32
71194;BME280;58903;47.210;8.618;2023-12-22T04:30:19;93500.38;;;25.38;37.40
71194;BME280;58903;47.210;8.618;2023-12-22T04:32:45;93503.13;;;25.38;37.69
71194;BME280;58903;47.210;8.618;2023-12-22T04:35:15;93497.63;;;25.38;36.89
71194;BME280;58903;47.210;8.618;2023-12-22T04:37:44;93488.06;;;25.39;36.76
71194;BME280;58903;47.210;8.618;2023-12-22T04:40:24;93508.19;;;25.34;36.89
71194;BME280;58903;47.210;8.618;2023-12-22T04:42:51;93518.16;;;25.37;36.85
71194;BME280;58903;47.210;8.618;2023-12-22T04:45:17;93537.41;;;25.37;37.03
71194;BME280;58903;47.210;8.618;2023-12-22T04:47:49;93546.94;;;25.36;36.70
71194;BME280;58903;47.210;8.618;2023-12-22T04:50:17;93559.22;;;25.35;37.31
71194;BME280;58903;47.210;8.618;2023-12-22T04:52:43;93559.97;;;25.35;37.72
71194;BME280;58903;47.210;8.618;2023-12-22T04:55:09;93561.97;;;25.35;37.19
71194;BME280;58903;47.210;8.618;2023-12-22T04:57:38;93571.69;;;25.36;37.67
71194;BME280;58903;47.210;8.618;2023-12-22T05:00:34;93573.19;;;25.37;37.30
71194;BME280;58903;47.210;8.618;2023-12-22T05:03:03;93557.94;;;25.36;37.09
71194;BME280;58903;47.210;8.618;2023-12-22T05:05:32;93574.25;;;25.34;37.63
71194;BME280;58903;47.210;8.618;2023-12-22T05:07:57;93567.47;;;25.35;36.85
71194;BME280;58903;47.210;8.618;2023-12-22T05:10:26;93557.94;;;25.36;37.26
71194;BME280;58903;47.210;8.618;2023-12-22T05:13:01;93570.25;;;25.35;37.46
71194;BME280;58903;47.210;8.618;2023-12-22T05:15:27;93550.34;;;25.29;37.70
71194;BME280;58903;47.210;8.618;2023-12-22T05:17:53;93565.28;;;25.33;37.29
71194;BME280;58903;47.210;8.618;2023-12-22T05:20:35;93568.03;;;25.33;37.77
71194;BME280;58903;47.210;8.618;2023-12-22T05:23:03;93574.25;;;25.34;37.12
71194;BME280;58903;47.210;8.618;2023-12-22T05:25:31;93571.19;;;25.37;37.97
71194;BME280;58903;47.210;8.618;2023-12-22T05:28:06;93555.88;;;25.42;37.38
71194;BME280;58903;47.210;8.618;2023-12-22T05:30:34;93557.66;;;25.39;37.21
71194;BME280;58903;47.210;8.618;2023-12-22T05:33:03;93566.09;;;25.41;38.04
71194;BME280;58903;47.210;8.618;2023-12-22T05:35:31;93561.66;;;25.38;38.38
71194;BME280;58903;47.210;8.618;2023-12-22T05:37:57;93563.44;;;25.36;37.88
71194;BME280;58903;47.210;8.618;2023-12-22T05:40:23;93564.53;;;25.33;37.63
71194;BME280;58903;47.210;8.618;2023-12-22T05:43:24;93563.69;;;25.38;37.54
71194;BME280;58903;47.210;8.618;2023-12-22T05:46:26;93560.41;;;25.39;37.96
71194;BME280;58903;47.210;8.618;2023-12-22T05:48:54;93571.94;;;25.38;37.45
71194;BME280;58903;47.210;8.618;2023-12-22T05:51:51;93580.19;;;25.38;38.04
71194;BME280;58903;47.210;8.618;2023-12-22T05:54:17;93571.19;;;25.37;37.88
71194;BME280;58903;47.210;8.618;2023-12-22T05:56:55;93577.44;;;25.38;37.70
71194;BME280;58903;47.210;8.618;2023-12-22T05:59:23;93586.00;;;25.34;38.02
71194;BME280;58903;47.210;8.618;2023-12-22T06:01:53;93594.63;;;25.44;38.23
71194;BME280;58903;47.210;8.618;2023-12-22T06:04:22;93582.31;;;25.45;37.96
71194;BME280;58903;47.210;8.618;2023-12-22T06:06:48;93578.75;;;25.50;37.67
71194;BME280;58903;47.210;8.618;2023-12-22T06:09:30;93585.94;;;25.53;37.65
71194;BME280;58903;47.210;8.618;2023-12-22T06:12:20;93590.91;;;25.55;37.58
71194;BME280;58903;47.210;8.618;2023-12-22T06:14:46;93584.03;;;25.48;37.88
71194;BME280;58903;47.210;8.618;2023-12-22T06:17:21;93584.44;;;25.52;37.14
71194;BME280;58903;47.210;8.618;2023-12-22T06:19:56;93576.00;;;25.50;37.50
71194;BME280;58903;47.210;8.618;2023-12-22T06:22:29;93585.50;;;25.49;37.46
71194;BME280;58903;47.210;8.618;2023-12-22T06:24:55;93589.22;;;25.52;37.54
71194;BME280;58903;47.210;8.618;2023-12-22T06:27:22;93595.69;;;25.54;37.67
71194;BME280;58903;47.210;8.618;2023-12-22T06:29:49;93600.97;;;25.52;37.50
71194;BME280;58903;47.210;8.618;2023-12-22T06:32:15;93600.75;;;25.50;37.25
71194;BME280;58903;47.210;8.618;2023-12-22T06:34:51;93598.22;;;25.52;37.08
71194;BME280;58903;47.210;8.618;2023-12-22T06:37:18;93610.53;;;25.51;37.71
71194;BME280;58903;47.210;8.618;2023-12-22T06:39:53;93607.78;;;25.51;37.75
71194;BME280;58903;47.210;8.618;2023-12-22T06:42:19;93607.53;;;25.49;37.25
71194;BME280;58903;47.210;8.618;2023-12-22T06:44:47;93609.25;;;25.52;37.63
71194;BME280;58903;47.210;8.618;2023-12-22T06:47:40;93610.94;;;25.55;37.91
71194;BME280;58903;47.210;8.618;2023-12-22T06:50:11;93609.03;;;25.50;37.38
71194;BME280;58903;47.210;8.618;2023-12-22T06:52:39;93623.22;;;25.54;37.72
71194;BME280;58903;47.210;8.618;2023-12-22T06:55:08;93628.19;;;25.56;37.71
71194;BME280;58903;47.210;8.618;2023-12-22T06:57:34;93626.38;;;25.58;36.82
71194;BME280;58903;47.210;8.618;2023-12-22T07:00:07;93613.91;;;25.57;37.62
71194;BME280;58903;47.210;8.618;2023-12-22T07:02:33;93619.41;;;25.57;37.52
71194;BME280;58903;47.210;8.618;2023-12-22T07:07:57;93626.38;;;25.58;37.88
71194;BME280;58903;47.210;8.618;2023-12-22T07:10:35;93630.09;;;25.61;37.56
71194;BME280;58903;47.210;8.618;2023-12-22T07:13:10;93626.09;;;25.62;36.91
71194;BME280;58903;47.210;8.618;2023-12-22T07:15:38;93615.06;;;25.62;36.89
71194;BME280;58903;47.210;8.618;2023-12-22T07:18:05;93625.13;;;25.59;37.04
71194;BME280;58903;47.210;8.618;2023-12-22T07:20:34;93636.69;;;25.58;38.09
71194;BME280;58903;47.210;8.618;2023-12-22T07:23:01;93646.84;;;25.63;38.02
71194;BME280;58903;47.210;8.618;2023-12-22T07:25:51;93640.81;;;25.64;38.14
71194;BME280;58903;47.210;8.618;2023-12-22T07:28:47;93636.25;;;25.67;37.81
71194;BME280;58903;47.210;8.618;2023-12-22T07:31:15;93646.75;;;25.68;37.48
71194;BME280;58903;47.210;8.618;2023-12-22T07:33:54;93663.28;;;25.68;38.00
71194;BME280;58903;47.210;8.618;2023-12-22T07:36:33;93673.53;;;25.68;37.54
71194;BME280;58903;47.210;8.618;2023-12-22T07:39:13;93676.63;;;25.64;38.13
71194;BME280;58903;47.210;8.618;2023-12-22T07:41:43;93681.59;;;25.66;37.54
71194;BME280;58903;47.210;8.618;2023-12-22T07:44:17;93692.59;;;25.66;37.69
71194;BME280;58903;47.210;8.618;2023-12-22T07:46:44;93711.28;;;25.73;38.33
71194;BME280;58903;47.210;8.618;2023-12-22T07:49:39;93713.28;;;25.72;37.61
71194;BME280;58903;47.210;8.618;2023-12-22T07:52:06;93700.03;;;25.71;38.32
71194;BME280;58903;47.210;8.618;2023-12-22T07:54:34;93719.31;;;25.71;38.40
71194;BME280;58903;47.210;8.618;2023-12-22T07:57:02;93721.31;;;25.70;37.78
71194;BME280;58903;47.210;8.618;2023-12-22T07:59:44;93714.31;;;25.69;37.58
71194;BME280;58903;47.210;8.618;2023-12-22T08:02:12;93718.34;;;25.68;38.16
71194;BME280;58903;47.210;8.618;2023-12-22T08:04:39;93720.38;;;25.68;37.62
71194;BME280;58903;47.210;8.618;2023-12-22T08:07:19;93729.38;;;25.68;37.78
71194;BME280;58903;47.210;8.618;2023-12-22T08:10:05;93720.91;;;25.66;38.25
71194;BME280;58903;47.210;8.618;2023-12-22T08:12:31;93712.44;;;25.64;38.20
71194;BME280;58903;47.210;8.618;2023-12-22T08:15:16;93715.59;;;25.68;37.50
71194;BME280;58903;47.210;8.618;2023-12-22T08:17:48;93710.38;;;25.65;37.56
71194;BME280;58903;47.210;8.618;2023-12-22T08:20:25;93719.81;;;25.69;37.87
71194;BME280;58903;47.210;8.618;2023-12-22T08:22:51;93719.81;;;25.69;37.60
71194;BME280;58903;47.210;8.618;2023-12-22T08:25:33;93717.59;;;25.68;38.25
71194;BME280;58903;47.210;8.618;2023-12-22T08:28:04;93719.63;;;25.67;37.45
71194;BME280;58903;47.210;8.618;2023-12-22T08:30:32;93732.56;;;25.72;37.62
71194;BME280;58903;47.210;8.618;2023-12-22T08:33:02;93729.59;;;25.70;37.70
71194;BME280;58903;47.210;8.618;2023-12-22T08:35:28;93725.13;;;25.67;37.53
71194;BME280;58903;47.210;8.618;2023-12-22T08:37:59;93730.84;;;25.69;38.15
71194;BME280;58903;47.210;8.618;2023-12-22T08:40:28;93707.34;;;25.68;37.69
71194;BME280;58903;47.210;8.618;2023-12-22T08:42:57;93718.34;;;25.68;38.35
71194;BME280;58903;47.210;8.618;2023-12-22T08:45:28;93723.34;;;25.70;37.88
71194;BME280;58903;47.210;8.618;2023-12-22T08:47:55;93748.66;;;25.68;37.98
71194;BME280;58903;47.210;8.618;2023-12-22T08:50:22;93748.44;;;25.66;37.60
71194;BME280;58903;47.210;8.618;2023-12-22T08:52:48;93732.63;;;25.67;37.70
71194;BME280;58903;47.210;8.618;2023-12-22T08:55:14;93732.41;;;25.65;37.98
71194;BME280;58903;47.210;8.618;2023-12-22T08:57:42;93727.88;;;25.67;37.44
71194;BME280;58903;47.210;8.618;2023-12-22T09:00:09;93727.59;;;25.71;37.60
71194;BME280;58903;47.210;8.618;2023-12-22T09:02:40;93728.84;;;25.70;37.47
71194;BME280;58903;47.210;8.618;2023-12-22T09:05:28;93722.78;;;25.71;38.20
71194;BME280;58903;47.210;8.618;2023-12-22T09:08:04;93728.09;;;25.69;37.42
71194;BME280;58903;47.210;8.618;2023-12-22T09:10:31;93739.31;;;25.71;37.33
71194;BME280;58903;47.210;8.618;2023-12-22T09:13:07;93737.09;;;25.70;37.53
71194;BME280;58903;47.210;8.618;2023-12-22T09:15:35;93732.56;;;25.72;38.25
71194;BME280;58903;47.210;8.618;2023-12-22T09:18:07;93753.31;;;25.73;37.91
71194;BME280;58903;47.210;8.618;2023-12-22T09:20:35;93754.06;;;25.74;37.35
71194;BME280;58903;47.210;8.618;2023-12-22T09:23:07;93760.31;;;25.74;37.29
71194;BME280;58903;47.210;8.618;2023-12-22T09:25:37;93762.31;;;25.74;37.52
71194;BME280;58903;47.210;8.618;2023-12-22T09:28:06;93757.13;;;25.70;37.78
71194;BME280;58903;47.210;8.618;2023-12-22T09:30:37;93765.41;;;25.70;37.02
71194;BME280;58903;47.210;8.618;2023-12-22T09:33:23;93770.38;;;25.72;37.97
71194;BME280;58903;47.210;8.618;2023-12-22T09:35:54;93787.66;;;25.72;37.25
71194;BME280;58903;47.210;8.618;2023-12-22T09:38:25;93778.63;;;25.72;36.97
71194;BME280;58903;47.210;8.618;2023-12-22T09:40:51;93779.81;;;25.76;37.27
71194;BME280;58903;47.210;8.618;2023-12-22T09:43:22;93779.06;;;25.76;37.66
71194;BME280;58903;47.210;8.618;2023-12-22T09:45:53;93793.81;;;25.78;37.22
71194;BME280;58903;47.210;8.618;2023-12-22T09:48:22;93780.56;;;25.77;37.80
71194;BME280;58903;47.210;8.618;2023-12-22T09:50:58;93777.81;;;25.77;37.97
71194;BME280;58903;47.210;8.618;2023-12-22T09:53:29;93778.31;;;25.75;37.56
71194;BME280;58903;47.210;8.618;2023-12-22T09:56:01;93776.09;;;25.74;37.29
71194;BME280;58903;47.210;8.618;2023-12-22T09:58:31;93776.84;;;25.74;37.91
71194;BME280;58903;47.210;8.618;2023-12-22T10:01:00;93782.34;;;25.74;37.30
71194;BME280;58903;47.210;8.618;2023-12-22T10:03:32;93782.34;;;25.74;37.01
71194;BME280;58903;47.210;8.618;2023-12-22T10:06:01;93796.34;;;25.76;37.79
71194;BME280;58903;47.210;8.618;2023-12-22T10:08:28;93796.34;;;25.76;37.47
71194;BME280;58903;47.210;8.618;2023-12-22T10:10:56;93776.09;;;25.74;37.63
71194;BME280;58903;47.210;8.618;2023-12-22T10:13:22;93780.84;;;25.73;37.20
71194;BME280;58903;47.210;8.618;2023-12-22T10:16:05;93792.09;;;25.75;37.43
71194;BME280;58903;47.210;8.618;2023-12-22T10:18:33;93789.31;;;25.75;36.96
71194;BME280;58903;47.210;8.618;2023-12-22T10:20:59;93777.88;;;25.71;37.28
71194;BME280;58903;47.210;8.618;2023-12-22T10:23:27;93761.34;;;25.71;37.66
71194;BME280;58903;47.210;8.618;2023-12-22T10:25:57;93764.31;;;25.73;37.79
71194;BME280;58903;47.210;8.618;2023-12-22T10:28:27;93759.56;;;25.74;37.27
71194;BME280;58903;47.210;8.618;2023-12-22T10:30:53;93748.00;;;25.75;37.35
71194;BME280;58903;47.210;8.618;2023-12-22T10:33:38;93747.50;;;25.77;37.71
71194;BME280;58903;47.210;8.618;2023-12-22T10:36:09;93746.31;;;25.72;37.25
71194;BME280;58903;47.210;8.618;2023-12-22T10:38:50;93743.78;;;25.74;37.61
71194;BME280;58903;47.210;8.618;2023-12-22T10:41:16;93731.81;;;25.72;37.78
71194;BME280;58903;47.210;8.618;2023-12-22T10:43:47;93738.06;;;25.72;37.19
71194;BME280;58903;47.210;8.618;2023-12-22T10:46:13;93732.78;;;25.74;37.09
71194;BME280;58903;47.210;8.618;2023-12-22T10:48:53;93727.25;;;25.74;37.87
71194;BME280;58903;47.210;8.618;2023-12-22T10:51:19;93729.47;;;25.76;37.62
71194;BME280;58903;47.210;8.618;2023-12-22T10:53:51;93718.03;;;25.72;37.99
71194;BME280;58903;47.210;8.618;2023-12-22T10:56:27;93713.06;;;25.70;37.92
71194;BME280;58903;47.210;8.618;2023-12-22T10:59:07;93717.28;;;25.71;37.86
71194;BME280;58903;47.210;8.618;2023-12-22T11:01:38;93710.31;;;25.70;37.57
71194;BME280;58903;47.210;8.618;2023-12-22T11:04:17;93714.97;;;25.75;37.78
71194;BME280;58903;47.210;8.618;2023-12-22T11:06:57;93704.69;;;25.76;37.59
71194;BME280;58903;47.210;8.618;2023-12-22T11:09:26;93699.72;;;25.74;37.68
71194;BME280;58903;47.210;8.618;2023-12-22T11:12:02;93697.50;;;25.73;37.64
71194;BME280;58903;47.210;8.618;2023-12-22T11:14:46;93705.53;;;25.71;37.13
71194;BME280;58903;47.210;8.618;2023-12-22T11:17:33;93675.97;;;25.71;37.77
71194;BME280;58903;47.210;8.618;2023-12-22T11:20:15;93678.22;;;25.73;37.64
71194;BME280;58903;47.210;8.618;2023-12-22T11:22:58;93669.41;;;25.74;37.63
71194;BME280;58903;47.210;8.618;2023-12-22T11:25:26;93667.00;;;25.71;37.91
71194;BME280;58903;47.210;8.618;2023-12-22T11:28:21;93663.28;;;25.68;37.58
71194;BME280;58903;47.210;8.618;2023-12-22T11:31:01;93666.13;;;25.63;37.94
71194;BME280;58903;47.210;8.618;2023-12-22T11:33:36;93655.09;;;25.63;38.25
71194;BME280;58903;47.210;8.618;2023-12-22T11:36:07;93642.28;;;25.65;38.01
71194;BME280;58903;47.210;8.618;2023-12-22T11:38:45;93641.34;;;25.63;37.82
71194;BME280;58903;47.210;8.618;2023-12-22T11:41:43;93630.94;;;25.69;37.53
71194;BME280;58903;47.210;8.618;2023-12-22T11:44:44;93622.91;;;25.71;38.17
71194;BME280;58903;47.210;8.618;2023-12-22T11:47:23;93618.88;;;25.72;38.21
71194;BME280;58903;47.210;8.618;2023-12-22T11:49:59;93611.56;;;25.74;38.47
71194;BME280;58903;47.210;8.618;2023-12-22T11:52:28;93608.28;;;25.76;37.58
71194;BME280;58903;47.210;8.618;2023-12-22T11:55:07;93613.03;;;25.75;38.20
71194;BME280;58903;47.210;8.618;2023-12-22T11:57:48;93599.50;;;25.77;38.36
71194;BME280;58903;47.210;8.618;2023-12-22T12:02:55;93575.97;;;25.76;37.96
71194;BME280;58903;47.210;8.618;2023-12-22T12:05:48;93584.44;;;25.78;38.34
71194;BME280;58903;47.210;8.618;2023-12-22T12:08:53;93581.69;;;25.78;38.24
71194;BME280;58903;47.210;8.618;2023-12-22T12:11:23;93584.44;;;25.78;37.72
71194;BME280;58903;47.210;8.618;2023-12-22T12:13:51;93580.44;;;25.79;37.96
71194;BME280;58903;47.210;8.618;2023-12-22T12:16:49;93580.94;;;25.78;38.48
71194;BME280;58903;47.210;8.618;2023-12-22T12:19:20;93584.44;;;25.78;37.85
71194;BME280;58903;47.210;8.618;2023-12-22T12:22:05;93586.16;;;25.81;37.34
71194;BME280;58903;47.210;8.618;2023-12-22T12:24:35;93585.41;;;25.81;37.96
71194;BME280;58903;47.210;8.618;2023-12-22T12:27:18;93574.19;;;25.79;38.02
71194;BME280;58903;47.210;8.618;2023-12-22T12:29:46;93577.13;;;25.81;37.87
71194;BME280;58903;47.210;8.618;2023-12-22T12:32:28;93572.16;;;25.79;37.11
71194;BME280;58903;47.210;8.618;2023-12-22T12:34:54;93580.63;;;25.81;38.16
71194;BME280;58903;47.210;8.618;2023-12-22T12:37:30;93581.91;;;25.80;37.64
71194;BME280;58903;47.210;8.618;2023-12-22T12:40:00;93583.41;;;25.81;38.01
71194;BME280;58903;47.210;8.618;2023-12-22T12:42:29;93585.94;;;25.79;37.74
71194;BME280;58903;47.210;8.618;2023-12-22T12:45:01;93573.44;;;25.78;38.01
71194;BME280;58903;47.210;8.618;2023-12-22T12:47:28;93577.13;;;25.81;37.81
71194;BME280;58903;47.210;8.618;2023-12-22T12:50:04;93577.69;;;25.79;37.97
71194;BME280;58903;47.210;8.618;2023-12-22T12:52:41;93568.66;;;25.79;37.66
71194;BME280;58903;47.210;8.618;2023-12-22T12:55:35;93578.72;;;25.76;38.30
71194;BME280;58903;47.210;8.618;2023-12-22T12:58:10;93582.44;;;25.79;37.93
71194;BME280;58903;47.210;8.618;2023-12-22T13:00:36;93580.00;;;25.75;37.73
71194;BME280;58903;47.210;8.618;2023-12-22T13:03:04;93581.06;;;25.72;38.22
71194;BME280;58903;47.210;8.618;2023-12-22T13:05:32;93576.59;;;25.69;37.67
71194;BME280;58903;47.210;8.618;2023-12-22T13:08:12;93574.94;;;25.66;37.86
71194;BME280;58903;47.210;8.618;2023-12-22T13:10:43;93577.47;;;25.64;38.69
71194;BME280;58903;47.210;8.618;2023-12-22T13:13:29;93582.03;;;25.62;38.82
71194;BME280;58903;47.210;8.618;2023-12-22T13:15:57;93578.31;;;25.59;38.25
71194;BME280;58903;47.210;8.618;2023-12-22T13:18:25;93568.34;;;25.56;37.92
71194;BME280;58903;47.210;8.618;2023-12-22T13:20:52;93575.16;;;25.55;38.71
71194;BME280;58903;47.210;8.618;2023-12-22T13:23:18;93577.91;;;25.55;38.49
71194;BME280;58903;47.210;8.618;2023-12-22T13:25:50;93579.91;;;25.55;38.65
71194;BME280;58903;47.210;8.618;2023-12-22T13:28:25;93587.41;;;25.54;38.65
71194;BME280;58903;47.210;8.618;2023-12-22T13:30:53;93585.75;;;25.51;38.62
71194;BME280;58903;47.210;8.618;2023-12-22T13:33:46;93591.47;;;25.53;38.69
71194;BME280;58903;47.210;8.618;2023-12-22T13:36:18;93590.16;;;25.54;39.02
71194;BME280;58903;47.210;8.618;2023-12-22T13:38:47;93603.09;;;25.59;39.92
71194;BME280;58903;47.210;8.618;2023-12-22T13:41:21;93605.31;;;25.61;40.12
71194;BME280;58903;47.210;8.618;2023-12-22T13:43:50;93604.06;;;25.62;38.93